createdAt,value
2019-04-03T00:00:54.683Z,20.50
2019-04-03T00:01:55.029Z,23.90
2019-04-03T00:02:55.396Z,21.00
2019-04-03T00:03:55.768Z,21.10
2019-04-03T00:04:56.084Z,18.60
2019-04-03T00:05:56.459Z,20.20
2019-04-03T00:06:56.775Z,21.20
2019-04-03T00:07:57.176Z,20.30
2019-04-03T00:08:57.643Z,18.60
2019-04-03T00:09:57.849Z,17.30
2019-04-03T00:10:58.198Z,20.20
2019-04-03T00:11:58.617Z,18.90
2019-04-03T00:12:58.939Z,22.20
2019-04-03T00:13:59.258Z,19.60
2019-04-03T00:14:59.609Z,19.00
2019-04-03T00:15:59.974Z,22.40
2019-04-03T00:17:00.414Z,19.20
2019-04-03T00:18:00.703Z,19.40
2019-04-03T00:19:01.022Z,21.70
2019-04-03T00:20:01.385Z,17.80
2019-04-03T00:21:01.744Z,20.70
2019-04-03T00:22:02.058Z,21.50
2019-04-03T00:23:02.445Z,17.70
2019-04-03T00:24:02.785Z,19.60
2019-04-03T00:25:03.204Z,20.80
2019-04-03T00:26:03.502Z,17.70
2019-04-03T00:27:03.830Z,18.80
2019-04-03T00:28:04.181Z,19.70
2019-04-03T00:29:04.574Z,21.80
2019-04-03T00:30:04.942Z,20.50
2019-04-03T00:31:05.383Z,20.30
2019-04-03T00:32:05.874Z,22.20
2019-04-03T00:33:06.003Z,20.70
2019-04-03T00:34:06.312Z,19.90
2019-04-03T00:35:06.710Z,21.60
2019-04-03T00:36:07.052Z,17.60
2019-04-03T00:37:07.535Z,17.90
2019-04-03T00:38:07.760Z,18.90
2019-04-03T00:39:08.121Z,19.90
2019-04-03T00:40:08.581Z,21.20
2019-04-03T00:41:08.853Z,18.10
2019-04-03T00:42:09.242Z,19.90
2019-04-03T00:43:09.536Z,18.90
2019-04-03T00:44:09.904Z,21.50
2019-04-03T00:45:10.253Z,22.00
2019-04-03T00:46:10.610Z,22.50
2019-04-03T00:47:10.943Z,20.40
2019-04-03T00:48:11.299Z,18.70
2019-04-03T00:49:11.677Z,20.20
2019-04-03T00:50:12.143Z,20.90
2019-04-03T00:51:12.372Z,21.60
2019-04-03T00:52:12.710Z,21.20
2019-04-03T00:53:13.119Z,18.10
2019-04-03T00:54:13.423Z,23.40
2019-04-03T00:55:13.784Z,22.00
2019-04-03T00:56:14.120Z,20.80
2019-04-03T00:57:14.472Z,18.10
2019-04-03T00:58:14.913Z,20.70
2019-04-03T00:59:15.318Z,20.90
2019-04-03T01:00:15.542Z,23.20
2019-04-03T01:01:15.888Z,23.10
2019-04-03T01:02:16.688Z,21.40
2019-04-03T01:03:16.590Z,22.60
2019-04-03T01:04:16.969Z,19.80
2019-04-03T01:05:17.356Z,22.70
2019-04-03T01:06:17.703Z,19.70
2019-04-03T01:07:17.965Z,21.10
2019-04-03T01:08:18.523Z,18.80
2019-04-03T01:09:18.706Z,21.50
2019-04-03T01:10:19.262Z,20.20
2019-04-03T01:11:19.413Z,25.40
2019-04-03T01:12:19.750Z,19.10
2019-04-03T01:13:20.188Z,17.80
2019-04-03T01:14:20.534Z,19.50
2019-04-03T01:15:20.826Z,22.60
2019-04-03T01:16:21.177Z,21.70
2019-04-03T01:17:21.503Z,20.70
2019-04-03T01:18:21.849Z,22.60
2019-04-03T01:19:22.238Z,18.90
2019-04-03T01:20:22.885Z,18.80
2019-04-03T01:21:23.096Z,20.30
2019-04-03T01:22:23.305Z,21.70
2019-04-03T01:23:23.767Z,20.90
2019-04-03T01:24:24.008Z,22.10
2019-04-03T01:25:24.378Z,23.50
2019-04-03T01:26:24.734Z,20.60
2019-04-03T01:27:25.062Z,23.90
2019-04-03T01:28:25.419Z,22.50
2019-04-03T01:29:25.811Z,22.80
2019-04-03T01:30:26.104Z,19.80
2019-04-03T01:31:26.572Z,18.70
2019-04-03T01:32:26.851Z,19.80
2019-04-03T01:33:27.182Z,20.10
2019-04-03T01:34:27.552Z,21.90
2019-04-03T01:35:27.890Z,21.90
2019-04-03T01:36:28.272Z,20.40
2019-04-03T01:37:28.636Z,21.60
2019-04-03T01:38:28.985Z,19.70
2019-04-03T01:39:29.428Z,21.30
2019-04-03T01:40:29.662Z,18.90
2019-04-03T01:41:30.182Z,19.20
2019-04-03T01:42:30.401Z,22.30
2019-04-03T01:43:30.740Z,22.30
2019-04-03T01:44:31.110Z,26.40
2019-04-03T01:45:31.440Z,29.10
2019-04-03T01:46:31.799Z,28.20
2019-04-03T01:47:32.197Z,25.10
2019-04-03T01:48:32.581Z,24.90
2019-04-03T01:49:32.876Z,22.80
2019-04-03T01:50:33.194Z,20.80
2019-04-03T01:51:33.547Z,21.10
2019-04-03T01:52:33.896Z,21.90
2019-04-03T01:53:34.250Z,23.10
2019-04-03T01:54:34.747Z,19.50
2019-04-03T01:55:35.118Z,21.60
2019-04-03T01:56:36.243Z,21.10
2019-04-03T01:57:36.501Z,23.20
2019-04-03T01:58:36.561Z,24.20
2019-04-03T01:59:37.576Z,20.90
2019-04-03T02:00:37.481Z,19.60
2019-04-03T02:01:38.328Z,21.20
2019-04-03T02:02:38.721Z,20.30
2019-04-03T02:03:37.800Z,24.40
2019-04-03T02:04:38.235Z,21.70
2019-04-03T02:05:38.516Z,21.30
2019-04-03T02:06:38.906Z,20.80
2019-04-03T02:07:39.244Z,22.40
2019-04-03T02:08:39.555Z,22.40
2019-04-03T02:09:40.183Z,24.30
2019-04-03T02:10:40.264Z,20.70
2019-04-03T02:11:40.924Z,26.70
2019-04-03T02:12:41.147Z,26.10
2019-04-03T02:13:41.353Z,25.70
2019-04-03T02:14:41.709Z,25.70
2019-04-03T02:15:42.039Z,25.80
2019-04-03T02:16:42.633Z,21.40
2019-04-03T02:17:42.768Z,22.10
2019-04-03T02:18:43.099Z,19.80
2019-04-03T02:19:43.639Z,21.10
2019-04-03T02:20:43.871Z,22.10
2019-04-03T02:21:44.166Z,22.40
2019-04-03T02:22:44.515Z,22.60
2019-04-03T02:23:44.848Z,20.50
2019-04-03T02:24:45.218Z,21.00
2019-04-03T02:25:45.549Z,22.40
2019-04-03T02:26:45.942Z,23.70
2019-04-03T02:27:46.292Z,21.80
2019-04-03T02:28:46.687Z,23.40
2019-04-03T02:29:46.980Z,21.50
2019-04-03T02:30:47.417Z,22.60
2019-04-03T02:31:51.779Z,22.40
2019-04-03T02:32:49.054Z,21.60
2019-04-03T02:33:48.487Z,22.00
2019-04-03T02:34:48.757Z,24.70
2019-04-03T02:35:49.089Z,24.40
2019-04-03T02:36:49.475Z,23.20
2019-04-03T02:37:50.643Z,20.90
2019-04-03T02:38:51.567Z,23.70
2019-04-03T02:39:50.518Z,24.90
2019-04-03T02:40:50.862Z,24.10
2019-04-03T02:41:51.225Z,21.80
2019-04-03T02:42:51.587Z,22.00
2019-04-03T02:43:51.923Z,24.00
2019-04-03T02:44:52.287Z,22.10
2019-04-03T02:45:53.784Z,22.80
2019-04-03T02:47:00.280Z,22.30
2019-04-03T02:47:53.409Z,25.40
2019-04-03T02:48:53.690Z,23.30
2019-04-03T02:49:54.057Z,24.90
2019-04-03T02:50:54.433Z,25.10
2019-04-03T02:51:54.782Z,21.00
2019-04-03T02:52:57.513Z,23.80
2019-04-03T02:53:55.590Z,21.30
2019-04-03T02:54:55.963Z,21.00
2019-04-03T02:55:56.340Z,25.10
2019-04-03T02:56:56.553Z,25.60
2019-04-03T02:57:56.944Z,25.90
2019-04-03T02:58:57.242Z,23.60
2019-04-03T02:59:58.656Z,24.50
2019-04-03T03:00:57.987Z,24.80
2019-04-03T03:01:58.508Z,20.80
2019-04-03T03:02:58.675Z,22.60
2019-04-03T03:03:59.014Z,22.80
2019-04-03T03:04:59.351Z,21.30
2019-04-03T03:06:00.893Z,22.00
2019-04-03T03:07:03.239Z,22.30
2019-04-03T03:08:00.868Z,23.40
2019-04-03T03:09:00.901Z,20.20
2019-04-03T03:10:01.411Z,21.20
2019-04-03T03:11:01.460Z,22.20
2019-04-03T03:12:01.823Z,22.40
2019-04-03T03:13:02.559Z,25.30
2019-04-03T03:14:04.320Z,22.90
2019-04-03T03:15:02.903Z,21.50
2019-04-03T03:16:03.335Z,25.10
2019-04-03T03:17:03.592Z,24.50
2019-04-03T03:18:04.176Z,20.30
2019-04-03T03:19:04.400Z,24.70
2019-04-03T03:20:06.956Z,23.60
2019-04-03T03:21:05.256Z,25.60
2019-04-03T03:22:05.666Z,23.30
2019-04-03T03:23:05.766Z,23.20
2019-04-03T03:24:06.085Z,25.60
2019-04-03T03:25:06.442Z,20.50
2019-04-03T03:26:06.817Z,22.50
2019-04-03T03:27:08.673Z,22.20
2019-04-03T03:28:07.535Z,21.30
2019-04-03T03:29:16.959Z,23.10
2019-04-03T03:30:31.058Z,25.30
2019-04-03T03:31:09.671Z,27.40
2019-04-03T03:32:14.922Z,24.60
2019-04-03T03:33:28.289Z,26.90
2019-04-03T03:34:11.122Z,23.00
2019-04-03T03:35:14.164Z,22.30
2019-04-03T03:36:11.560Z,23.80
2019-04-03T03:37:12.205Z,23.60
2019-04-03T03:38:11.055Z,24.00
2019-04-03T03:39:11.694Z,22.10
2019-04-03T03:40:15.394Z,26.50
2019-04-03T03:41:12.155Z,23.70
2019-04-03T03:42:12.715Z,23.30
2019-04-03T03:43:12.936Z,24.30
2019-04-03T03:44:13.158Z,25.90
2019-04-03T03:45:18.126Z,22.80
2019-04-03T03:46:14.893Z,22.50
2019-04-03T03:47:14.696Z,24.90
2019-04-03T03:48:14.582Z,25.20
2019-04-03T03:49:16.311Z,26.80
2019-04-03T03:50:15.260Z,25.00
2019-04-03T03:51:15.662Z,27.60
2019-04-03T03:52:15.981Z,23.50
2019-04-03T03:53:16.321Z,26.20
2019-04-03T03:54:18.398Z,26.80
2019-04-03T03:55:17.024Z,24.80
2019-04-03T03:56:17.419Z,23.60
2019-04-03T03:57:17.768Z,25.60
2019-04-03T03:58:18.102Z,30.30
2019-04-03T03:59:18.977Z,25.20
2019-04-03T04:00:22.412Z,28.40
2019-04-03T04:01:19.228Z,25.40
2019-04-03T04:02:19.566Z,28.20
2019-04-03T04:03:20.248Z,25.90
2019-04-03T04:04:20.450Z,28.60
2019-04-03T04:05:22.740Z,26.70
2019-04-03T04:06:21.361Z,25.50
2019-04-03T04:07:21.307Z,28.40
2019-04-03T04:08:21.825Z,25.10
2019-04-03T04:09:22.423Z,26.80
2019-04-03T04:10:24.370Z,26.20
2019-04-03T04:11:22.754Z,27.00
2019-04-03T04:12:23.293Z,24.60
2019-04-03T04:13:23.458Z,22.10
2019-04-03T04:14:23.944Z,27.70
2019-04-03T04:15:26.351Z,25.70
2019-04-03T04:16:24.593Z,27.20
2019-04-03T04:17:24.832Z,30.40
2019-04-03T04:18:25.229Z,26.20
2019-04-03T04:19:28.538Z,28.70
2019-04-03T04:20:25.932Z,27.80
2019-04-03T04:21:26.264Z,26.20
2019-04-03T04:22:27.581Z,26.90
2019-04-03T04:23:27.271Z,31.30
2019-04-03T04:24:27.871Z,25.60
2019-04-03T04:25:28.321Z,25.50
2019-04-03T04:26:28.024Z,23.70
2019-04-03T04:27:28.341Z,29.50
2019-04-03T04:28:28.713Z,26.40
2019-04-03T04:29:29.352Z,27.60
2019-04-03T04:30:29.397Z,26.30
2019-04-03T04:31:29.792Z,29.50
2019-04-03T04:32:30.183Z,27.30
2019-04-03T04:33:30.604Z,26.80
2019-04-03T04:34:31.053Z,29.10
2019-04-03T04:35:31.211Z,28.80
2019-04-03T04:36:31.589Z,27.30
2019-04-03T04:37:32.281Z,28.20
2019-04-03T04:38:32.278Z,27.30
2019-04-03T04:39:32.675Z,27.70
2019-04-03T04:40:32.987Z,28.60
2019-04-03T04:41:33.625Z,27.50
2019-04-03T04:42:34.621Z,26.00
2019-04-03T04:43:34.039Z,27.70
2019-04-03T04:44:34.596Z,26.60
2019-04-03T04:45:40.698Z,28.50
2019-04-03T04:46:39.906Z,26.80
2019-04-03T04:47:35.447Z,26.60
2019-04-03T04:48:35.799Z,25.80
2019-04-03T04:49:36.307Z,28.50
2019-04-03T04:50:36.510Z,33.50
2019-04-03T04:51:36.977Z,28.00
2019-04-03T04:52:37.213Z,31.00
2019-04-03T04:53:37.588Z,29.10
2019-04-03T04:54:38.175Z,25.20
2019-04-03T04:55:38.305Z,26.50
2019-04-03T04:56:38.672Z,28.00
2019-04-03T04:57:40.668Z,30.40
2019-04-03T04:58:40.763Z,27.70
2019-04-03T04:59:39.711Z,28.00
2019-04-03T05:00:40.066Z,25.10
2019-04-03T05:01:40.417Z,29.90
2019-04-03T05:02:40.748Z,27.10
2019-04-03T05:03:41.156Z,29.00
2019-04-03T05:04:41.474Z,32.80
2019-04-03T05:05:41.906Z,27.30
2019-04-03T05:06:42.178Z,26.40
2019-04-03T05:07:42.578Z,25.70
2019-04-03T05:08:42.870Z,26.40
2019-04-03T05:09:43.377Z,28.80
2019-04-03T05:10:43.588Z,27.00
2019-04-03T05:11:43.972Z,29.00
2019-04-03T05:12:45.534Z,28.60
2019-04-03T05:13:46.387Z,31.10
2019-04-03T05:14:46.736Z,25.80
2019-04-03T05:15:45.359Z,28.70
2019-04-03T05:16:45.740Z,35.00
2019-04-03T05:17:46.081Z,27.40
2019-04-03T05:18:46.419Z,31.30
2019-04-03T05:19:48.647Z,33.80
2019-04-03T05:20:47.139Z,27.90
2019-04-03T05:21:47.618Z,31.90
2019-04-03T05:22:48.064Z,30.90
2019-04-03T05:23:48.433Z,29.50
2019-04-03T05:24:48.557Z,30.40
2019-04-03T05:25:48.891Z,26.10
2019-04-03T05:26:49.426Z,23.70
2019-04-03T05:27:49.595Z,27.50
2019-04-03T05:28:55.717Z,28.60
2019-04-03T05:29:51.377Z,30.00
2019-04-03T05:30:51.094Z,30.50
2019-04-03T05:31:50.998Z,32.90
2019-04-03T05:32:51.383Z,33.40
2019-04-03T05:33:51.727Z,29.90
2019-04-03T05:34:52.113Z,29.30
2019-04-03T05:35:52.451Z,29.60
2019-04-03T05:36:52.800Z,31.50
2019-04-03T05:37:53.324Z,29.20
2019-04-03T05:38:53.971Z,31.60
2019-04-03T05:39:55.208Z,30.90
2019-04-03T05:40:56.109Z,35.00
2019-04-03T05:41:54.894Z,32.90
2019-04-03T05:42:54.978Z,30.60
2019-04-03T05:43:55.248Z,31.80
2019-04-03T05:44:55.633Z,27.50
2019-04-03T05:45:55.995Z,32.30
2019-04-03T05:46:58.760Z,31.50
2019-04-03T05:47:56.686Z,30.20
2019-04-03T05:48:56.998Z,34.70
2019-04-03T05:49:57.396Z,31.10
2019-04-03T05:50:58.120Z,29.40
2019-04-03T05:51:58.106Z,32.10
2019-04-03T05:52:58.471Z,26.50
2019-04-03T05:53:58.805Z,30.70
2019-04-03T05:54:59.353Z,27.90
2019-04-03T05:55:59.589Z,29.60
2019-04-03T05:56:59.942Z,29.40
2019-04-03T05:58:00.234Z,29.50
2019-04-03T05:59:02.300Z,29.80
2019-04-03T06:00:01.910Z,29.60
2019-04-03T06:01:05.437Z,32.00
2019-04-03T06:02:13.538Z,29.40
2019-04-03T06:03:03.001Z,30.00
2019-04-03T06:04:02.419Z,30.00
2019-04-03T06:05:05.780Z,30.20
2019-04-03T06:06:03.996Z,33.20
2019-04-03T06:07:03.500Z,24.40
2019-04-03T06:08:03.827Z,29.50
2019-04-03T06:09:04.095Z,29.30
2019-04-03T06:10:04.465Z,33.60
2019-04-03T06:11:07.676Z,32.00
2019-04-03T06:12:08.105Z,28.80
2019-04-03T06:13:06.219Z,30.50
2019-04-03T06:14:08.067Z,29.10
2019-04-03T06:15:08.912Z,30.40
2019-04-03T06:16:06.564Z,28.10
2019-04-03T06:17:06.897Z,32.40
2019-04-03T06:18:07.317Z,28.10
2019-04-03T06:19:07.620Z,30.30
2019-04-03T06:20:10.365Z,35.40
2019-04-03T06:21:08.411Z,36.20
2019-04-03T06:22:09.927Z,28.90
2019-04-03T06:23:09.046Z,31.20
2019-04-03T06:24:09.503Z,28.00
2019-04-03T06:25:12.637Z,28.40
2019-04-03T06:26:10.086Z,28.90
2019-04-03T06:27:10.552Z,34.10
2019-04-03T06:28:12.379Z,27.80
2019-04-03T06:29:11.170Z,31.90
2019-04-03T06:30:11.519Z,35.20
2019-04-03T06:31:12.093Z,33.20
2019-04-03T06:32:12.271Z,32.70
2019-04-03T06:33:12.746Z,32.80
2019-04-03T06:34:13.009Z,28.20
2019-04-03T06:35:13.638Z,34.80
2019-04-03T06:36:13.624Z,30.90
2019-04-03T06:37:14.097Z,31.90
2019-04-03T06:38:14.552Z,30.60
2019-04-03T06:39:14.684Z,31.00
2019-04-03T06:40:15.333Z,30.00
2019-04-03T06:41:15.411Z,29.10
2019-04-03T06:42:15.772Z,33.40
2019-04-03T06:43:17.013Z,31.90
2019-04-03T06:44:16.464Z,27.80
2019-04-03T06:45:16.913Z,35.20
2019-04-03T06:46:17.189Z,27.20
2019-04-03T06:47:17.532Z,31.00
2019-04-03T06:48:17.908Z,31.60
2019-04-03T06:49:18.217Z,33.40
2019-04-03T06:50:18.588Z,30.20
2019-04-03T06:51:18.970Z,29.40
2019-04-03T06:52:21.227Z,28.40
2019-04-03T06:53:19.730Z,29.50
2019-04-03T06:54:19.991Z,29.30
2019-04-03T06:55:20.336Z,34.80
2019-04-03T06:56:20.716Z,30.20
2019-04-03T06:57:21.065Z,29.40
2019-04-03T06:58:21.671Z,31.30
2019-04-03T06:59:21.762Z,31.50
2019-04-03T07:00:22.369Z,30.80
2019-04-03T07:01:22.691Z,30.40
2019-04-03T07:02:22.812Z,27.90
2019-04-03T07:03:23.408Z,32.30
2019-04-03T07:04:23.609Z,28.30
2019-04-03T07:05:23.868Z,32.00
2019-04-03T07:06:24.270Z,29.00
2019-04-03T07:07:33.062Z,32.30
2019-04-03T07:08:32.123Z,28.90
2019-04-03T07:09:34.206Z,31.60
2019-04-03T07:10:26.705Z,30.20
2019-04-03T07:11:26.018Z,31.30
2019-04-03T07:12:31.519Z,29.80
2019-04-03T07:13:31.464Z,28.80
2019-04-03T07:14:32.518Z,26.70
2019-04-03T07:15:33.099Z,28.80
2019-04-03T07:16:32.566Z,29.50
2019-04-03T07:17:29.779Z,29.60
2019-04-03T07:18:28.511Z,30.70
2019-04-03T07:19:28.878Z,30.10
2019-04-03T07:20:29.184Z,31.00
2019-04-03T07:21:29.536Z,30.30
2019-04-03T07:22:29.883Z,26.50
2019-04-03T07:23:30.312Z,33.00
2019-04-03T07:24:31.742Z,27.50
2019-04-03T07:25:33.317Z,26.80
2019-04-03T07:26:31.404Z,28.90
2019-04-03T07:27:31.650Z,29.90
2019-04-03T07:28:32.017Z,35.60
2019-04-03T07:29:32.354Z,31.20
2019-04-03T07:30:32.688Z,27.00
2019-04-03T07:31:33.069Z,27.80
2019-04-03T07:32:33.528Z,32.20
2019-04-03T07:33:34.053Z,29.00
2019-04-03T07:34:34.642Z,25.90
2019-04-03T07:35:34.469Z,26.70
2019-04-03T07:36:34.864Z,27.50
2019-04-03T07:37:35.226Z,28.30
2019-04-03T07:38:35.577Z,28.30
2019-04-03T07:39:36.156Z,27.50
2019-04-03T07:40:36.507Z,26.50
2019-04-03T07:41:36.628Z,29.70
2019-04-03T07:42:37.057Z,28.90
2019-04-03T07:43:37.349Z,28.10
2019-04-03T07:44:37.699Z,27.60
2019-04-03T07:45:38.041Z,27.00
2019-04-03T07:46:38.415Z,28.80
2019-04-03T07:47:38.744Z,24.40
2019-04-03T07:48:39.302Z,29.50
2019-04-03T07:49:40.068Z,24.30
2019-04-03T07:50:41.585Z,23.80
2019-04-03T07:51:42.717Z,26.20
2019-04-03T07:52:40.501Z,28.90
2019-04-03T07:53:40.851Z,28.20
2019-04-03T07:54:41.460Z,26.40
2019-04-03T07:55:43.331Z,26.80
2019-04-03T07:56:42.010Z,28.80
2019-04-03T07:57:42.272Z,28.40
2019-04-03T07:58:42.650Z,29.90
2019-04-03T07:59:43.040Z,29.30
2019-04-03T08:00:43.320Z,26.20
2019-04-03T08:01:43.703Z,26.00
2019-04-03T08:02:47.331Z,28.10
2019-04-03T08:03:44.397Z,28.30
2019-04-03T08:04:44.806Z,29.10
2019-04-03T08:05:45.087Z,26.30
2019-04-03T08:06:45.451Z,26.70
2019-04-03T08:07:46.227Z,26.00
2019-04-03T08:08:46.153Z,23.30
2019-04-03T08:09:46.592Z,27.90
2019-04-03T08:10:46.919Z,25.40
2019-04-03T08:11:47.221Z,29.30
2019-04-03T08:12:47.561Z,28.70
2019-04-03T08:13:47.930Z,26.90
2019-04-03T08:14:48.263Z,29.40
2019-04-03T08:15:48.847Z,27.50
2019-04-03T08:16:48.972Z,25.80
2019-04-03T08:17:49.770Z,25.60
2019-04-03T08:18:49.884Z,27.00
2019-04-03T08:19:50.012Z,27.10
2019-04-03T08:20:50.353Z,26.80
2019-04-03T08:21:50.744Z,29.70
2019-04-03T08:22:51.071Z,30.50
2019-04-03T08:23:51.489Z,29.70
2019-04-03T08:24:52.737Z,27.60
2019-04-03T08:25:53.835Z,28.20
2019-04-03T08:26:52.760Z,27.00
2019-04-03T08:27:54.867Z,26.20
2019-04-03T08:28:53.188Z,26.20
2019-04-03T08:29:53.524Z,27.70
2019-04-03T08:30:53.892Z,26.40
2019-04-03T08:31:54.263Z,30.00
2019-04-03T08:32:54.959Z,28.60
2019-04-03T08:33:55.261Z,24.80
2019-04-03T08:34:55.531Z,23.60
2019-04-03T08:35:55.660Z,34.80
2019-04-03T08:36:56.030Z,28.40
2019-04-03T08:37:56.369Z,24.70
2019-04-03T08:38:56.704Z,25.30
2019-04-03T08:39:57.725Z,25.60
2019-04-03T08:40:57.567Z,26.50
2019-04-03T08:41:58.050Z,24.80
2019-04-03T08:42:59.965Z,25.50
2019-04-03T08:43:58.516Z,27.90
2019-04-03T08:44:59.493Z,24.40
2019-04-03T08:45:59.488Z,29.70
2019-04-03T08:46:59.887Z,24.40
2019-04-03T08:47:59.925Z,25.50
2019-04-03T08:49:00.452Z,27.00
2019-04-03T08:50:01.350Z,27.50
2019-04-03T08:51:02.274Z,24.30
2019-04-03T08:52:01.619Z,28.10
2019-04-03T08:53:01.689Z,26.70
2019-04-03T08:54:02.039Z,29.10
2019-04-03T08:55:02.682Z,26.20
2019-04-03T08:56:02.762Z,25.30
2019-04-03T08:57:03.352Z,24.70
2019-04-03T08:58:03.448Z,25.10
2019-04-03T08:59:03.811Z,24.80
2019-04-03T09:00:04.160Z,23.60
2019-04-03T09:01:05.251Z,24.90
2019-04-03T09:02:05.721Z,26.00
2019-04-03T09:03:05.219Z,25.10
2019-04-03T09:04:05.667Z,26.20
2019-04-03T09:05:05.977Z,25.30
2019-04-03T09:06:06.502Z,36.20
2019-04-03T09:07:06.629Z,27.90
2019-04-03T09:08:06.981Z,24.50
2019-04-03T09:09:07.331Z,27.30
2019-04-03T09:10:07.844Z,22.70
2019-04-03T09:11:08.234Z,26.50
2019-04-03T09:12:08.390Z,24.60
2019-04-03T09:13:16.518Z,25.90
2019-04-03T09:14:10.147Z,26.30
2019-04-03T09:15:09.459Z,23.10
2019-04-03T09:16:10.113Z,23.80
2019-04-03T09:17:10.151Z,28.40
2019-04-03T09:18:10.601Z,24.80
2019-04-03T09:19:10.940Z,22.60
2019-04-03T09:20:13.099Z,23.10
2019-04-03T09:21:12.718Z,30.30
2019-04-03T09:22:12.008Z,26.80
2019-04-03T09:23:12.582Z,27.70
2019-04-03T09:24:12.620Z,22.60
2019-04-03T09:25:13.451Z,21.80
2019-04-03T09:26:13.313Z,24.00
2019-04-03T09:27:13.929Z,22.80
2019-04-03T09:28:14.006Z,25.00
2019-04-03T09:29:14.453Z,20.50
2019-04-03T09:30:16.082Z,24.60
2019-04-03T09:31:15.076Z,24.90
2019-04-03T09:32:15.426Z,26.40
2019-04-03T09:33:15.765Z,23.90
2019-04-03T09:34:16.218Z,23.10
2019-04-03T09:35:16.503Z,25.80
2019-04-03T09:36:16.842Z,20.70
2019-04-03T09:37:18.199Z,22.30
2019-04-03T09:38:17.608Z,22.30
2019-04-03T09:39:18.030Z,23.00
2019-04-03T09:40:18.338Z,22.10
2019-04-03T09:41:19.673Z,26.90
2019-04-03T09:42:19.613Z,23.90
2019-04-03T09:43:20.091Z,21.40
2019-04-03T09:44:19.910Z,21.40
2019-04-03T09:45:20.257Z,21.80
2019-04-03T09:46:20.442Z,23.20
2019-04-03T09:47:20.723Z,21.50
2019-04-03T09:48:21.111Z,26.30
2019-04-03T09:49:21.456Z,23.00
2019-04-03T09:50:22.057Z,25.30
2019-04-03T09:51:22.899Z,24.40
2019-04-03T09:52:23.193Z,22.80
2019-04-03T09:53:23.973Z,22.70
2019-04-03T09:54:23.230Z,21.40
2019-04-03T09:55:23.645Z,25.50
2019-04-03T09:56:23.945Z,24.10
2019-04-03T09:57:24.533Z,21.50
2019-04-03T09:58:24.670Z,20.50
2019-04-03T09:59:25.001Z,22.20
2019-04-03T10:00:25.415Z,19.30
2019-04-03T10:01:25.748Z,22.40
2019-04-03T10:02:26.044Z,22.80
2019-04-03T10:03:26.523Z,22.20
2019-04-03T10:04:26.870Z,21.10
2019-04-03T10:05:28.923Z,24.50
2019-04-03T10:06:30.392Z,21.90
2019-04-03T10:07:30.712Z,23.30
2019-04-03T10:08:28.198Z,22.70
2019-04-03T10:09:28.527Z,20.70
2019-04-03T10:10:28.906Z,20.70
2019-04-03T10:11:29.387Z,21.80
2019-04-03T10:12:31.745Z,21.70
2019-04-03T10:13:30.225Z,19.20
2019-04-03T10:14:30.559Z,21.00
2019-04-03T10:15:31.071Z,32.60
2019-04-03T10:16:31.004Z,24.60
2019-04-03T10:17:31.393Z,22.50
2019-04-03T10:18:31.696Z,20.50
2019-04-03T10:19:32.329Z,20.50
2019-04-03T10:20:32.631Z,22.80
2019-04-03T10:21:33.662Z,19.80
2019-04-03T10:22:33.089Z,20.40
2019-04-03T10:23:33.463Z,19.10
2019-04-03T10:24:33.792Z,22.40
2019-04-03T10:25:34.857Z,21.10
2019-04-03T10:26:34.502Z,21.60
2019-04-03T10:27:34.876Z,19.60
2019-04-03T10:28:35.427Z,20.70
2019-04-03T10:29:35.553Z,21.10
2019-04-03T10:30:36.249Z,21.30
2019-04-03T10:31:36.256Z,24.60
2019-04-03T10:32:36.808Z,22.70
2019-04-03T10:33:36.988Z,19.40
2019-04-03T10:34:37.364Z,20.80
2019-04-03T10:35:38.914Z,24.10
2019-04-03T10:36:39.599Z,19.90
2019-04-03T10:37:38.394Z,21.30
2019-04-03T10:38:41.485Z,24.00
2019-04-03T10:39:40.995Z,20.80
2019-04-03T10:40:39.817Z,24.10
2019-04-03T10:41:39.793Z,20.70
2019-04-03T10:42:40.248Z,18.80
2019-04-03T10:43:40.673Z,20.20
2019-04-03T10:44:41.099Z,22.00
2019-04-03T10:45:41.300Z,18.70
2019-04-03T10:46:41.608Z,20.40
2019-04-03T10:47:43.699Z,17.80
2019-04-03T10:48:42.334Z,21.10
2019-04-03T10:49:42.760Z,19.30
2019-04-03T10:50:43.023Z,20.30
2019-04-03T10:51:43.381Z,18.10
2019-04-03T10:52:44.548Z,19.60
2019-04-03T10:53:44.184Z,20.10
2019-04-03T10:54:44.746Z,18.90
2019-04-03T10:55:44.804Z,19.10
2019-04-03T10:56:45.197Z,20.50
2019-04-03T10:57:45.495Z,19.90
2019-04-03T10:58:45.884Z,21.70
2019-04-03T10:59:47.724Z,20.30
2019-04-03T11:00:46.765Z,16.40
2019-04-03T11:01:46.920Z,21.40
2019-04-03T11:02:47.238Z,24.50
2019-04-03T11:03:47.636Z,19.00
2019-04-03T11:04:48.019Z,21.20
2019-04-03T11:05:48.520Z,19.70
2019-04-03T11:06:48.717Z,18.70
2019-04-03T11:07:49.125Z,25.40
2019-04-03T11:08:49.434Z,19.60
2019-04-03T11:09:50.137Z,21.20
2019-04-03T11:10:50.127Z,19.80
2019-04-03T11:11:50.499Z,18.00
2019-04-03T11:12:50.989Z,20.10
2019-04-03T11:13:51.206Z,20.20
2019-04-03T11:14:51.549Z,20.90
2019-04-03T11:15:51.895Z,22.30
2019-04-03T11:16:52.588Z,20.50
2019-04-03T11:17:52.747Z,17.60
2019-04-03T11:18:58.451Z,16.70
2019-04-03T11:19:54.280Z,18.70
2019-04-03T11:20:53.650Z,20.50
2019-04-03T11:21:55.882Z,18.80
2019-04-03T11:23:04.053Z,18.10
2019-04-03T11:23:55.887Z,22.00
2019-04-03T11:24:55.188Z,18.70
2019-04-03T11:25:55.772Z,17.70
2019-04-03T11:26:55.782Z,15.90
2019-04-03T11:27:56.208Z,19.90
2019-04-03T11:28:56.492Z,19.20
2019-04-03T11:29:57.158Z,16.80
2019-04-03T11:31:00.306Z,22.50
2019-04-03T11:31:57.632Z,19.80
2019-04-03T11:32:57.888Z,18.30
2019-04-03T11:33:58.371Z,16.10
2019-04-03T11:34:58.576Z,16.40
2019-04-03T11:35:58.944Z,17.40
2019-04-03T11:37:00.266Z,16.60
2019-04-03T11:38:10.931Z,17.70
2019-04-03T11:39:11.294Z,20.00
2019-04-03T11:40:03.689Z,18.70
2019-04-03T11:41:11.438Z,18.00
2019-04-03T11:42:02.134Z,16.80
2019-04-03T11:43:01.410Z,17.10
2019-04-03T11:44:01.792Z,19.30
2019-04-03T11:45:03.962Z,20.40
2019-04-03T11:46:02.754Z,20.50
2019-04-03T11:47:02.850Z,18.80
2019-04-03T11:48:03.165Z,17.10
2019-04-03T11:49:03.517Z,22.30
2019-04-03T11:50:03.896Z,17.60
2019-04-03T11:51:04.403Z,20.30
2019-04-03T11:52:04.626Z,17.20
2019-04-03T11:53:07.005Z,18.90
2019-04-03T11:54:07.443Z,17.80
2019-04-03T11:55:05.729Z,14.80
2019-04-03T11:56:06.052Z,20.50
2019-04-03T11:57:06.530Z,16.40
2019-04-03T11:58:06.746Z,23.10
2019-04-03T11:59:07.389Z,25.60
2019-04-03T12:00:07.706Z,25.80
2019-04-03T12:01:07.821Z,25.20
2019-04-03T12:02:08.621Z,26.90
2019-04-03T12:03:10.582Z,22.00
2019-04-03T12:04:10.399Z,23.90
2019-04-03T12:05:09.243Z,22.80
2019-04-03T12:06:09.602Z,22.70
2019-04-03T12:07:10.027Z,22.20
2019-04-03T12:08:11.926Z,23.40
2019-04-03T12:09:10.648Z,23.90
2019-04-03T12:10:11.322Z,26.50
2019-04-03T12:11:11.557Z,24.10
2019-04-03T12:12:12.108Z,21.20
2019-04-03T12:13:13.061Z,21.80
2019-04-03T12:14:12.807Z,22.70
2019-04-03T12:15:15.066Z,23.90
2019-04-03T12:16:13.099Z,26.30
2019-04-03T12:17:13.577Z,25.00
2019-04-03T12:18:14.040Z,21.80
2019-04-03T12:19:14.180Z,21.40
2019-04-03T12:20:15.148Z,26.10
2019-04-03T12:21:16.463Z,23.80
2019-04-03T12:22:15.373Z,21.30
2019-04-03T12:23:16.015Z,24.80
2019-04-03T12:24:16.033Z,19.30
2019-04-03T12:25:16.307Z,24.20
2019-04-03T12:26:18.463Z,23.10
2019-04-03T12:27:17.406Z,19.80
2019-04-03T12:28:18.452Z,20.70
2019-04-03T12:29:19.074Z,21.00
2019-04-03T12:30:18.301Z,25.40
2019-04-03T12:31:18.438Z,21.90
2019-04-03T12:32:18.870Z,22.60
2019-04-03T12:33:20.715Z,23.30
2019-04-03T12:34:20.505Z,26.30
2019-04-03T12:35:19.855Z,24.40
2019-04-03T12:36:20.264Z,26.10
2019-04-03T12:37:20.614Z,21.30
2019-04-03T12:38:22.305Z,20.70
2019-04-03T12:39:22.292Z,21.60
2019-04-03T12:40:21.750Z,22.20
2019-04-03T12:41:22.381Z,26.60
2019-04-03T12:42:22.326Z,24.90
2019-04-03T12:43:23.056Z,23.90
2019-04-03T12:44:23.382Z,22.40
2019-04-03T12:45:25.510Z,23.60
2019-04-03T12:46:24.125Z,25.10
2019-04-03T12:47:26.833Z,22.70
2019-04-03T12:48:27.455Z,24.00
2019-04-03T12:49:24.762Z,25.40
2019-04-03T12:50:27.171Z,22.20
2019-04-03T12:51:25.490Z,24.60
2019-04-03T12:52:25.858Z,22.20
2019-04-03T12:53:26.198Z,23.00
2019-04-03T12:54:26.550Z,22.80
2019-04-03T12:55:26.957Z,22.10
2019-04-03T12:56:29.167Z,21.40
2019-04-03T12:57:27.887Z,26.40